Home > Products > Valid Products > TAF

000
FTUS41 KAKQ 131530 AAA
TAFSBY
TAF AMD
KSBY 131530Z 1316/1412 31023G34KT P6SM SCT060
      TEMPO 1316/1318 6SM -SHSN BKN060
     FM132200 32018G27KT P6SM BKN060
     FM140000 33015G25KT P6SM BKN060
     FM140900 31012G18KT P6SM SCT040=



000
FTUS41 KAKQ 131136
TAFORF
TAF
KORF 131136Z 1312/1412 32016G24KT P6SM SCT060 BKN080
     FM131400 32021G30KT P6SM BKN060
     FM132200 32018G25KT P6SM SCT060
     FM140000 32014G20KT P6SM SCT050=



000
FTUS41 KAKQ 131136
TAFPHF
TAF
KPHF 131136Z 1312/1412 31018G25KT P6SM SCT050 BKN080
     FM131400 32021G30KT P6SM BKN060
     FM132200 32018G25KT P6SM SCT060
     FM140000 32012G18KT P6SM SCT050=



000
FTUS41 KAKQ 131136
TAFPHF
TAF
KPHF 131136Z 1312/1412 31018G25KT P6SM SCT050 BKN080
     FM131400 32021G30KT P6SM BKN060
     FM132200 32018G25KT P6SM SCT060
     FM140000 32012G18KT P6SM SCT050=



000
FTUS41 KAKQ 131136
TAFSBY
TAF
KSBY 131136Z 1312/1412 30015G25KT P6SM VCSH BKN040 OVC070
     FM131400 31023G34KT P6SM OVC060
     FM132200 32018G27KT P6SM BKN060
     FM140000 33015G25KT P6SM BKN060
     FM140900 31012G18KT P6SM SCT040=



000
FTUS41 KAKQ 131136
TAFECG
TAF
KECG 131136Z 1312/1412 29007KT P6SM SCT070 OVC150
     FM131300 30016G24KT P6SM BKN070
     FM131500 31020G31KT P6SM BKN060
     FM132200 32016G24KT P6SM BKN060
     FM140000 32012G18KT P6SM SCT050=



000
FTUS41 KAKQ 131136
TAFORF
TAF
KORF 131136Z 1312/1412 32016G24KT P6SM SCT060 BKN080
     FM131400 32021G30KT P6SM BKN060
     FM132200 32018G25KT P6SM SCT060
     FM140000 32014G20KT P6SM SCT050=



000
FTUS41 KAKQ 131136
TAFRIC
TAF
KRIC 131136Z 1312/1412 33016G24KT P6SM SCT060 OVC080
     FM132300 32013G20KT P6SM BKN060
     FM140100 31008KT P6SM SCT050=



000
FTUS41 KAKQ 131136
TAFECG
TAF
KECG 131136Z 1312/1412 29007KT P6SM SCT070 OVC150
     FM131300 30016G24KT P6SM BKN070
     FM131500 31020G31KT P6SM BKN060
     FM132200 32016G24KT P6SM BKN060
     FM140000 32012G18KT P6SM SCT050=



000
FTUS41 KAKQ 131136
TAFRIC
TAF
KRIC 131136Z 1312/1412 33016G24KT P6SM SCT060 OVC080
     FM132300 32013G20KT P6SM BKN060
     FM140100 31008KT P6SM SCT050=



000
FTUS41 KAKQ 131136
TAFSBY
TAF
KSBY 131136Z 1312/1412 30015G25KT P6SM VCSH BKN040 OVC070
     FM131400 31023G34KT P6SM OVC060
     FM132200 32018G27KT P6SM BKN060
     FM140000 33015G25KT P6SM BKN060
     FM140900 31012G18KT P6SM SCT040=



000
FTUS41 KAKQ 130959 AAA
TAFRIC
TAF AMD
KRIC 130959Z 1310/1406 32016G25KT P6SM SCT060 OVC080
     FM132300 32013G20KT P6SM BKN060
     FM140100 31008KT P6SM SCT050=



000
FTUS41 KAKQ 130552
TAFECG
TAF
KECG 130552Z 1306/1406 29007KT P6SM BKN070
     FM131100 30014G24KT P6SM BKN060
     FM131400 31020G31KT P6SM BKN060
     FM132200 32016G25KT P6SM BKN060
     FM140000 32011G17KT P6SM SCT050=



000
FTUS41 KAKQ 130552
TAFPHF
TAF
KPHF 130552Z 1306/1406 28010KT P6SM SCT050 OVC080
     FM131100 31018G25KT P6SM BKN070
     FM131400 32021G30KT P6SM BKN060
     FM132200 32018G25KT P6SM SCT060
     FM140000 32014G20KT P6SM FEW050=



000
FTUS41 KAKQ 130552
TAFRIC
TAF
KRIC 130552Z 1306/1406 30005KT P6SM OVC060
     FM131000 30012G19KT P6SM OVC060
     FM131300 32016G25KT P6SM OVC060
     FM132300 32013G20KT P6SM BKN060
     FM140100 31008KT P6SM SCT050=



000
FTUS41 KAKQ 130552
TAFORF
TAF
KORF 130552Z 1306/1406 28010KT P6SM SCT070
     FM131100 32019G26KT P6SM BKN070
     FM131400 32021G30KT P6SM BKN060
     FM132200 32018G25KT P6SM SCT060
     FM140000 32014G20KT P6SM FEW050=



000
FTUS41 KAKQ 130552
TAFSBY
TAF
KSBY 130552Z 1306/1406 28005KT P6SM VCSH OVC080
     FM131000 30015G25KT P6SM BKN060 OVC080
     FM131400 31023G34KT P6SM OVC060
     FM132200 32018G27KT P6SM BKN060
     FM140000 33015G25KT P6SM BKN060=



000
FTUS41 KAKQ 130552
TAFRIC
TAF
KRIC 130552Z 1306/1406 30005KT P6SM OVC060
     FM131000 30012G19KT P6SM OVC060
     FM131300 32016G25KT P6SM OVC060
     FM132300 32013G20KT P6SM BKN060
     FM140100 31008KT P6SM SCT050=



000
FTUS41 KAKQ 130552
TAFORF
TAF
KORF 130552Z 1306/1406 28010KT P6SM SCT070
     FM131100 32019G26KT P6SM BKN070
     FM131400 32021G30KT P6SM BKN060
     FM132200 32018G25KT P6SM SCT060
     FM140000 32014G20KT P6SM FEW050=



000
FTUS41 KAKQ 130552
TAFECG
TAF
KECG 130552Z 1306/1406 29007KT P6SM BKN070
     FM131100 30014G24KT P6SM BKN060
     FM131400 31020G31KT P6SM BKN060
     FM132200 32016G25KT P6SM BKN060
     FM140000 32011G17KT P6SM SCT050=



000
FTUS41 KAKQ 130552
TAFPHF
TAF
KPHF 130552Z 1306/1406 28010KT P6SM SCT050 OVC080
     FM131100 31018G25KT P6SM BKN070
     FM131400 32021G30KT P6SM BKN060
     FM132200 32018G25KT P6SM SCT060
     FM140000 32014G20KT P6SM FEW050=



000
FTUS41 KAKQ 130552
TAFSBY
TAF
KSBY 130552Z 1306/1406 28005KT P6SM VCSH OVC080
     FM131000 30015G25KT P6SM BKN060 OVC080
     FM131400 31023G34KT P6SM OVC060
     FM132200 32018G27KT P6SM BKN060
     FM140000 33015G25KT P6SM BKN060=



000
FTUS41 KAKQ 130228 AAA
TAFSBY
TAF AMD
KSBY 130228Z 1302/1324 30006KT P6SM OVC070
      TEMPO 1304/1307 4SM -SN BKN040 OVC070
     FM130800 30014G23KT P6SM OVC050
     FM131400 31020G32KT P6SM BKN060
     FM132100 31018G27KT P6SM SCT060=



000
FTUS41 KAKQ 130224 AAA
TAFPHF
TAF AMD
KPHF 130224Z 1302/1324 27008KT P6SM OVC090
      TEMPO 1302/1304 BKN015 OVC060
     FM130800 30010G18KT P6SM SKC
     FM131300 32015G26KT P6SM SKC=



000
FTUS41 KAKQ 130222 AAA
TAFECG
TAF AMD
KECG 130222Z 1302/1324 29007KT P6SM SCT025 OVC100
      TEMPO 1302/1305 BKN015 OVC050
     FM130900 29015G25KT P6SM SCT040
     FM131300 31018G28KT P6SM SKC=



000
FTUS41 KAKQ 122340
TAFORF
TAF
KORF 122340Z 1300/1324 21003KT P6SM BKN080
      TEMPO 1300/1303 SCT007 OVC015
     FM130700 30012G22KT P6SM SCT250
     FM131400 33017G26KT P6SM SKC=



000
FTUS41 KAKQ 122340
TAFRIC
TAF
KRIC 122340Z 1300/1324 18005KT P6SM OVC050
     FM130300 26005KT P6SM BKN100
     FM130800 30012G18KT P6SM SCT100
     FM131300 32017G28KT P6SM SKC=



000
FTUS41 KAKQ 122340
TAFSBY
TAF
KSBY 122340Z 1300/1324 20006KT P6SM OVC050
     FM130300 23006KT 5SM -SN OVC030
     FM130900 30014G23KT P6SM OVC050
     FM131400 31020G32KT P6SM BKN060
     FM132100 31018G27KT P6SM SCT060=



000
FTUS41 KAKQ 122340
TAFPHF
TAF
KPHF 122340Z 1300/1324 VRB03KT P6SM OVC015
     FM130200 VRB03KT 4SM BR OVC025
     FM130800 30010G18KT P6SM SKC
     FM131300 32015G26KT P6SM SKC=



000
FTUS41 KAKQ 122340
TAFECG
TAF
KECG 122340Z 1300/1324 VRB05KT P6SM SCT008 OVC015
      TEMPO 1300/1304 4SM BR OVC008
     FM130900 29015G25KT P6SM SCT040
     FM131300 31018G28KT P6SM SKC=



000
FTUS41 KAKQ 122340
TAFRIC
TAF
KRIC 122340Z 1300/1324 18005KT P6SM OVC050
     FM130300 26005KT P6SM BKN100
     FM130800 30012G18KT P6SM SCT100
     FM131300 32017G28KT P6SM SKC=



000
FTUS41 KAKQ 122340
TAFSBY
TAF
KSBY 122340Z 1300/1324 20006KT P6SM OVC050
     FM130300 23006KT 5SM -SN OVC030
     FM130900 30014G23KT P6SM OVC050
     FM131400 31020G32KT P6SM BKN060
     FM132100 31018G27KT P6SM SCT060=



000
FTUS41 KAKQ 122340
TAFORF
TAF
KORF 122340Z 1300/1324 21003KT P6SM BKN080
      TEMPO 1300/1303 SCT007 OVC015
     FM130700 30012G22KT P6SM SCT250
     FM131400 33017G26KT P6SM SKC=



000
FTUS41 KAKQ 122340
TAFPHF
TAF
KPHF 122340Z 1300/1324 VRB03KT P6SM OVC015
     FM130200 VRB03KT 4SM BR OVC025
     FM130800 30010G18KT P6SM SKC
     FM131300 32015G26KT P6SM SKC=



000
FTUS41 KAKQ 122340
TAFECG
TAF
KECG 122340Z 1300/1324 VRB05KT P6SM SCT008 OVC015
      TEMPO 1300/1304 4SM BR OVC008
     FM130900 29015G25KT P6SM SCT040
     FM131300 31018G28KT P6SM SKC=



000
FTUS41 KAKQ 122239 AAC
TAFPHF
TAF AMD
KPHF 122239Z 1223/1318 VRB03KT P6SM OVC015
     FM130100 VRB03KT P6SM OVC045
     FM130400 25005KT P6SM BKN050
     FM130900 30013G21KT P6SM SKC
     FM131300 32017G30KT P6SM SKC=



000
FTUS41 KAKQ 122239 AAC
TAFPHF
TAF AMD
KPHF 122239Z 1223/1318 VRB03KT P6SM OVC015
     FM130100 VRB03KT P6SM OVC045
     FM130400 25005KT P6SM BKN050
     FM130900 30013G21KT P6SM SKC
     FM131300 32017G30KT P6SM SKC=



000
FTUS41 KAKQ 122237 AAB
TAFECG
TAF AMD
KECG 122237Z 1223/1318 03005KT P6SM -PLSN SCT008 OVC015
      TEMPO 1223/1301 4SM BR OVC008
     FM130100 VRB04KT 2SM BR OVC008
     FM130500 25008KT P6SM BKN050 OVC250
     FM130900 29015G25KT P6SM SCT040
     FM131300 31018G30KT P6SM SKC=



000
FTUS41 KAKQ 122219 AAB
TAFPHF
TAF AMD
KPHF 122219Z 1222/1318 12003KT P6SM OVC080
     FM130000 VRB03KT P6SM OVC045
     FM130400 25005KT P6SM BKN050
     FM130900 30013G21KT P6SM SKC
     FM131300 32017G30KT P6SM SKC=



000
FTUS41 KAKQ 122216 AAA
TAFECG
TAF AMD
KECG 122216Z 1222/1318 03005KT 4SM -SN BR SCT008 OVC050
     FM130000 04004KT P6SM SCT008 BKN080
     FM130100 27005KT 5SM BR OVC008
     FM130500 25008KT P6SM BKN050 OVC250
     FM130900 29015G25KT P6SM SCT040
     FM131300 31018G30KT P6SM SKC=



000
FTUS41 KAKQ 122205 AAB
TAFORF
TAF AMD
KORF 122205Z 1222/1318 09003KT 2SM -SN BR BKN015 OVC050
     FM122300 12004KT P6SM SCT025 OVC080
     FM130000 21003KT P6SM BKN080
     FM130700 30012G22KT P6SM SCT250
     FM131400 33017G26KT P6SM SKC=



000
FTUS41 KAKQ 122003 AAA
TAFORF
TAF AMD
KORF 122003Z 1220/1318 06007KT 3SM -SN BR OVC045
     FM122100 09007KT 3/4SM -SN BR OVC012
     FM130000 VRB03KT P6SM OVC025
     FM130900 30012G22KT P6SM SCT040
     FM131300 33017G30KT P6SM SKC=



000
FTUS41 KAKQ 122002 AAA
TAFPHF
TAF AMD
KPHF 122002Z 1220/1318 12006KT 3SM -SN BR OVC040
      TEMPO 1220/1224 1SM -SN BR OVC015
     FM130000 VRB03KT P6SM OVC045
     FM130800 30012G20KT P6SM SCT090
     FM131300 32017G30KT P6SM SKC=



000
FTUS41 KAKQ 121732
TAFPHF
TAF
KPHF 121732Z 1218/1318 06007KT P6SM OVC080
     FM121900 12006KT 5SM -SN BR OVC050
      TEMPO 1221/1224 1SM -SN BR OVC015
     FM130000 VRB03KT P6SM OVC045
     FM130800 30012G20KT P6SM SCT090
     FM131300 32017G30KT P6SM SKC=



000
FTUS41 KAKQ 121732
TAFSBY
TAF
KSBY 121732Z 1218/1318 VRB03KT P6SM BKN100
     FM122200 20006KT P6SM OVC050
     FM130300 23006KT 5SM -SN OVC030
     FM130900 30012G20KT P6SM BKN050
     FM131400 31018G30KT P6SM SCT060=



000
FTUS41 KAKQ 121732
TAFECG
TAF
KECG 121732Z 1218/1318 08006KT 5SM -SN OVC050
     FM121900 07006KT 1SM -SN BR OVC020
      TEMPO 1219/1223 1/2SM SN FZFG OVC005
     FM122300 VRB03KT 3SM -SN BR OVC008
     FM130100 27005KT 5SM BR OVC015
     FM130900 29015G25KT P6SM SCT040
     FM131300 31018G30KT P6SM SKC=



000
FTUS41 KAKQ 121732
TAFORF
TAF
KORF 121732Z 1218/1318 06007KT P6SM OVC080
     FM121900 06007KT 5SM -SN BR OVC045
     FM122100 09007KT 1SM -SN BR OVC012
     FM130000 VRB03KT P6SM OVC025
     FM130900 30012G22KT P6SM SCT040
     FM131300 33017G30KT P6SM SKC=



000
FTUS41 KAKQ 121732
TAFRIC
TAF
KRIC 121732Z 1218/1318 18005KT P6SM OVC050
     FM130300 26005KT P6SM BKN100
     FM130800 30012G18KT P6SM SCT100
     FM131300 32017G30KT P6SM SKC=



000
FTUS41 KAKQ 121120
TAFECG
TAF
KECG 121120Z 1212/1312 02010KT P6SM BKN100
     FM121800 08006KT 2SM -SN BR OVC015
     FM122100 07006KT 1/2SM SN FZFG OVC005
     FM122300 05005KT 3SM -SNPL BR OVC008
     FM130100 32005KT 5SM BR OVC015
     FM130900 29015G25KT P6SM SCT040=



000
FTUS41 KAKQ 121120
TAFSBY
TAF
KSBY 121120Z 1212/1312 VRB03KT P6SM BKN250
     FM121500 32004KT P6SM BKN100
     FM122200 18006KT 4SM -SN BR OVC025
     FM130200 23006KT P6SM OVC040
     FM130900 30012G20KT P6SM BKN050=



000
FTUS41 KAKQ 121120
TAFRIC
TAF
KRIC 121120Z 1212/1312 16004KT P6SM OVC100
     FM121800 18005KT P6SM OVC050
     FM130300 28005KT P6SM BKN100
     FM130900 30012KT P6SM SCT100=



000
FTUS41 KAKQ 121120
TAFECG
TAF
KECG 121120Z 1212/1312 02010KT P6SM BKN100
     FM121800 08006KT 2SM -SN BR OVC015
     FM122100 07006KT 1/2SM SN FZFG OVC005
     FM122300 05005KT 3SM -SNPL BR OVC008
     FM130100 32005KT 5SM BR OVC015
     FM130900 29015G25KT P6SM SCT040=



000
FTUS41 KAKQ 121120
TAFORF
TAF
KORF 121120Z 1212/1312 01007KT P6SM BKN100
     FM121900 06007KT 2SM -SN BR OVC025
     FM122100 09007KT 1/2SM SN FZFG OVC015
     FM130000 22004KT P6SM OVC025
     FM130900 30012G22KT P6SM SCT040=



000
FTUS41 KAKQ 121120
TAFPHF
TAF
KPHF 121120Z 1212/1312 36004KT P6SM BKN250
     FM121500 09004KT P6SM OVC100
     FM122000 12006KT 3SM -SN BR OVC025
      TEMPO 1222/1301 1/2SM SN FZFG OVC015
     FM130100 21005KT P6SM OVC030
     FM130900 30012G20KT P6SM SCT040=



000
FTUS41 KAKQ 121120
TAFPHF
TAF
KPHF 121120Z 1212/1312 36004KT P6SM BKN250
     FM121500 09004KT P6SM OVC100
     FM122000 12006KT 3SM -SN BR OVC025
      TEMPO 1222/1301 1/2SM SN FZFG OVC015
     FM130100 21005KT P6SM OVC030
     FM130900 30012G20KT P6SM SCT040=



000
FTUS41 KAKQ 121120
TAFORF
TAF
KORF 121120Z 1212/1312 01007KT P6SM BKN100
     FM121900 06007KT 2SM -SN BR OVC025
     FM122100 09007KT 1/2SM SN FZFG OVC015
     FM130000 22004KT P6SM OVC025
     FM130900 30012G22KT P6SM SCT040=



000
FTUS41 KAKQ 121120
TAFRIC
TAF
KRIC 121120Z 1212/1312 16004KT P6SM OVC100
     FM121800 18005KT P6SM OVC050
     FM130300 28005KT P6SM BKN100
     FM130900 30012KT P6SM SCT100=



000
FTUS41 KAKQ 121120
TAFSBY
TAF
KSBY 121120Z 1212/1312 VRB03KT P6SM BKN250
     FM121500 32004KT P6SM BKN100
     FM122200 18006KT 4SM -SN BR OVC025
     FM130200 23006KT P6SM OVC040
     FM130900 30012G20KT P6SM BKN050=



000
FTUS41 KAKQ 120520
TAFSBY
TAF
KSBY 120520Z 1206/1306 31006KT P6SM BKN250
     FM121500 VRB03KT P6SM BKN100
     FM122200 18006KT 2SM -SN BR OVC025
     FM130200 21003KT P6SM OVC030=



000
FTUS41 KAKQ 120520
TAFPHF
TAF
KPHF 120520Z 1206/1306 36004KT P6SM BKN250
     FM121200 02004KT P6SM OVC100
     FM121900 12006KT 2SM -SN BR OVC025
     FM122200 11005KT 1/2SM SN FG OVC015
     FM130100 18003KT P6SM OVC025=



000
FTUS41 KAKQ 120520
TAFSBY
TAF
KSBY 120520Z 1206/1306 31006KT P6SM BKN250
     FM121500 VRB03KT P6SM BKN100
     FM122200 18006KT 2SM -SN BR OVC025
     FM130200 21003KT P6SM OVC030=



000
FTUS41 KAKQ 120520
TAFORF
TAF
KORF 120520Z 1206/1306 36006KT P6SM BKN250
     FM121200 03005KT P6SM OVC100
     FM121800 04006KT 2SM -SN BR OVC025
     FM122100 05007KT 1/2SM SN FG OVC012
     FM130200 12004KT 5SM BR OVC025=



000
FTUS41 KAKQ 120520
TAFRIC
TAF
KRIC 120520Z 1206/1306 36004KT P6SM BKN250
     FM121200 VRB03KT P6SM OVC100
     FM121800 18005KT P6SM OVC050
     FM130300 24003KT P6SM BKN100=



000
FTUS41 KAKQ 120520
TAFECG
TAF
KECG 120520Z 1206/1306 34010KT P6SM BKN250
     FM121300 04005KT P6SM OVC080
     FM121700 07006KT 2SM -SN BR OVC015
     FM121900 06006KT 1/2SM SN FG OVC005
     FM122100 36005KT 3SM -SNPL BR OVC008
     FM130200 32005KT 4SM BR OVC012=



000
FTUS41 KAKQ 120520
TAFPHF
TAF
KPHF 120520Z 1206/1306 36004KT P6SM BKN250
     FM121200 02004KT P6SM OVC100
     FM121900 12006KT 2SM -SN BR OVC025
     FM122200 11005KT 1/2SM SN FG OVC015
     FM130100 18003KT P6SM OVC025=



000
FTUS41 KAKQ 120520
TAFRIC
TAF
KRIC 120520Z 1206/1306 36004KT P6SM BKN250
     FM121200 VRB03KT P6SM OVC100
     FM121800 18005KT P6SM OVC050
     FM130300 24003KT P6SM BKN100=



000
FTUS41 KAKQ 120520
TAFECG
TAF
KECG 120520Z 1206/1306 34010KT P6SM BKN250
     FM121300 04005KT P6SM OVC080
     FM121700 07006KT 2SM -SN BR OVC015
     FM121900 06006KT 1/2SM SN FG OVC005
     FM122100 36005KT 3SM -SNPL BR OVC008
     FM130200 32005KT 4SM BR OVC012=



000
FTUS41 KAKQ 120520
TAFORF
TAF
KORF 120520Z 1206/1306 36006KT P6SM BKN250
     FM121200 03005KT P6SM OVC100
     FM121800 04006KT 2SM -SN BR OVC025
     FM122100 05007KT 1/2SM SN FG OVC012
     FM130200 12004KT 5SM BR OVC025=



000
FTUS41 KAKQ 112338
TAFPHF
TAF
KPHF 112338Z 1200/1224 32006KT P6SM SKC
     FM121200 02004KT P6SM OVC100
     FM121900 12006KT 2SM -SN BR OVC025
     FM122100 11005KT 1/2SM SN FG OVC015=



000
FTUS41 KAKQ 112338
TAFORF
TAF
KORF 112338Z 1200/1224 02006KT P6SM SKC
     FM121200 03005KT P6SM OVC100
     FM121700 04006KT 2SM -SN BR OVC025
     FM121900 05007KT 1/2SM SN FG OVC012=



000
FTUS41 KAKQ 112338
TAFRIC
TAF
KRIC 112338Z 1200/1224 32007KT P6SM SKC
     FM120800 VRB03KT P6SM OVC100
     FM121800 18005KT P6SM OVC050=



000
FTUS41 KAKQ 112338
TAFSBY
TAF
KSBY 112338Z 1200/1224 31013G20KT P6SM SKC
     FM120300 31006KT P6SM SKC
     FM120800 00000KT P6SM SCT250
     FM121500 VRB03KT P6SM BKN100
     FM122100 20006KT 2SM -SN BR OVC025=



000
FTUS41 KAKQ 112338
TAFECG
TAF
KECG 112338Z 1200/1224 30006KT P6SM SKC
     FM120400 01008KT P6SM SKC
     FM121100 02005KT P6SM OVC100
     FM121400 06005KT P6SM OVC050
     FM121600 07006KT 2SM -SN BR OVC015
     FM121900 06006KT 1/2SM SN FG OVC005=



000
FTUS41 KAKQ 112338
TAFECG
TAF
KECG 112338Z 1200/1224 30006KT P6SM SKC
     FM120400 01008KT P6SM SKC
     FM121100 02005KT P6SM OVC100
     FM121400 06005KT P6SM OVC050
     FM121600 07006KT 2SM -SN BR OVC015
     FM121900 06006KT 1/2SM SN FG OVC005=



000
FTUS41 KAKQ 112338
TAFSBY
TAF
KSBY 112338Z 1200/1224 31013G20KT P6SM SKC
     FM120300 31006KT P6SM SKC
     FM120800 00000KT P6SM SCT250
     FM121500 VRB03KT P6SM BKN100
     FM122100 20006KT 2SM -SN BR OVC025=



000
FTUS41 KAKQ 112338
TAFPHF
TAF
KPHF 112338Z 1200/1224 32006KT P6SM SKC
     FM121200 02004KT P6SM OVC100
     FM121900 12006KT 2SM -SN BR OVC025
     FM122100 11005KT 1/2SM SN FG OVC015=



000
FTUS41 KAKQ 112338
TAFORF
TAF
KORF 112338Z 1200/1224 02006KT P6SM SKC
     FM121200 03005KT P6SM OVC100
     FM121700 04006KT 2SM -SN BR OVC025
     FM121900 05007KT 1/2SM SN FG OVC012=



000
FTUS41 KAKQ 112338
TAFRIC
TAF
KRIC 112338Z 1200/1224 32007KT P6SM SKC
     FM120800 VRB03KT P6SM OVC100
     FM121800 18005KT P6SM OVC050=



000
FTUS41 KAKQ 112236 AAA
TAFSBY
TAF AMD
KSBY 112236Z 1123/1218 31013G20KT P6SM SKC
     FM120200 32006KT P6SM SKC
     FM121300 VRB03KT P6SM BKN100=



000
FTUS41 KAKQ 111722
TAFSBY
TAF
KSBY 111722Z 1118/1218 29015G25KT P6SM SKC
     FM112300 32006KT P6SM SKC
     FM121300 VRB03KT P6SM BKN100=



000
FTUS41 KAKQ 111722
TAFPHF
TAF
KPHF 111722Z 1118/1218 29013G23KT P6SM SKC
     FM112300 34006KT P6SM SKC
     FM121200 02004KT P6SM OVC100=



000
FTUS41 KAKQ 111722
TAFRIC
TAF
KRIC 111722Z 1118/1218 28015G25KT P6SM SKC
     FM112300 35006KT P6SM SKC
     FM121200 VRB03KT P6SM OVC100=



000
FTUS41 KAKQ 111722
TAFECG
TAF
KECG 111722Z 1118/1218 29013G23KT P6SM SKC
     FM112300 33006KT P6SM SKC
     FM121200 02005KT P6SM OVC100
     FM121500 06005KT P6SM OVC050=



000
FTUS41 KAKQ 111722
TAFORF
TAF
KORF 111722Z 1118/1218 28013G23KT P6SM SKC
     FM112300 34006KT P6SM SKC
     FM121200 03005KT P6SM OVC100=



000
FTUS41 KAKQ 111722
TAFECG
TAF
KECG 111722Z 1118/1218 29013G23KT P6SM SKC
     FM112300 33006KT P6SM SKC
     FM121200 02005KT P6SM OVC100
     FM121500 06005KT P6SM OVC050=



000
FTUS41 KAKQ 111722
TAFPHF
TAF
KPHF 111722Z 1118/1218 29013G23KT P6SM SKC
     FM112300 34006KT P6SM SKC
     FM121200 02004KT P6SM OVC100=



000
FTUS41 KAKQ 111722
TAFORF
TAF
KORF 111722Z 1118/1218 28013G23KT P6SM SKC
     FM112300 34006KT P6SM SKC
     FM121200 03005KT P6SM OVC100=



000
FTUS41 KAKQ 111120
TAFRIC
TAF
KRIC 111120Z 1112/1212 27012KT P6SM SKC
     FM111300 29015G25KT P6SM SKC
     FM112300 35006KT P6SM SKC=



000
FTUS41 KAKQ 111120
TAFSBY
TAF
KSBY 111120Z 1112/1212 28012G18KT P6SM SKC
     FM111400 29015G25KT P6SM SKC
     FM112300 32006KT P6SM SKC=



000
FTUS41 KAKQ 111120
TAFORF
TAF
KORF 111120Z 1112/1212 28013G23KT P6SM SKC
     FM112300 35006KT P6SM SKC=



000
FTUS41 KAKQ 111120
TAFPHF
TAF
KPHF 111120Z 1112/1212 28013G23KT P6SM SKC
     FM112300 34006KT P6SM SKC=



000
FTUS41 KAKQ 111120
TAFECG
TAF
KECG 111120Z 1112/1212 28013G23KT P6SM SKC
     FM112300 33006KT P6SM SKC=



000
FTUS41 KAKQ 110522
TAFSBY
TAF
KSBY 110522Z 1106/1206 29012G18KT P6SM VCSH SCT040 OVC080
     FM110700 29012G18KT P6SM BKN100
     FM110800 29012G18KT P6SM SKC
     FM111400 29015G28KT P6SM SKC
     FM112300 30007KT P6SM SKC=



000
FTUS41 KAKQ 110522
TAFORF
TAF
KORF 110522Z 1106/1206 27012G18KT P6SM SCT070
     FM111300 29015G25KT P6SM SKC
     FM112300 31007KT P6SM SKC=



000
FTUS41 KAKQ 110522
TAFRIC
TAF
KRIC 110522Z 1106/1206 30012G18KT P6SM SCT070
     FM111300 30013G23KT P6SM SKC
     FM112300 32007KT P6SM SKC=



000
FTUS41 KAKQ 110522
TAFPHF
TAF
KPHF 110522Z 1106/1206 31012G18KT P6SM FEW070
     FM111300 29014G24KT P6SM SKC
     FM112300 30006KT P6SM SKC=



000
FTUS41 KAKQ 110522
TAFECG
TAF
KECG 110522Z 1106/1206 29015G25KT P6SM SKC
     FM111300 28013G23KT P6SM SKC
     FM112300 30006KT P6SM SKC=



000
FTUS41 KAKQ 110522
TAFRIC
TAF
KRIC 110522Z 1106/1206 30012G18KT P6SM SCT070
     FM111300 30013G23KT P6SM SKC
     FM112300 32007KT P6SM SKC=



000
FTUS41 KAKQ 110522
TAFORF
TAF
KORF 110522Z 1106/1206 27012G18KT P6SM SCT070
     FM111300 29015G25KT P6SM SKC
     FM112300 31007KT P6SM SKC=



000
FTUS41 KAKQ 110522
TAFSBY
TAF
KSBY 110522Z 1106/1206 29012G18KT P6SM VCSH SCT040 OVC080
     FM110700 29012G18KT P6SM BKN100
     FM110800 29012G18KT P6SM SKC
     FM111400 29015G28KT P6SM SKC
     FM112300 30007KT P6SM SKC=



000
FTUS41 KAKQ 110522
TAFPHF
TAF
KPHF 110522Z 1106/1206 31012G18KT P6SM FEW070
     FM111300 29014G24KT P6SM SKC
     FM112300 30006KT P6SM SKC=



000
FTUS41 KAKQ 110522
TAFECG
TAF
KECG 110522Z 1106/1206 29015G25KT P6SM SKC
     FM111300 28013G23KT P6SM SKC
     FM112300 30006KT P6SM SKC=



000
FTUS41 KAKQ 110405 AAB
TAFSBY
TAF AMD
KSBY 110405Z 1104/1124 29011G18KT P6SM BKN070
     FM110800 29011KT P6SM SKC
     FM111400 29014G24KT P6SM SCT250=



000
FTUS41 KAKQ 110351 AAA
TAFECG
TAF AMD
KECG 110351Z 1104/1124 29013G19KT P6SM BKN080
     FM110700 29010KT P6SM SKC
     FM111300 28013G20KT P6SM SKC=



000
FTUS41 KAKQ 110351 AAA
TAFECG
TAF AMD
KECG 110351Z 1104/1124 29013G19KT P6SM BKN080
     FM110700 29010KT P6SM SKC
     FM111300 28013G20KT P6SM SKC=



000
FTUS41 KAKQ 110350 AAA
TAFPHF
TAF AMD
KPHF 110350Z 1104/1124 28012G19KT P6SM BKN080
     FM110800 28011KT P6SM SKC
     FM111300 29015G23KT P6SM SKC=



000
FTUS41 KAKQ 110257 AAA
TAFRIC
TAF AMD
KRIC 110257Z 1103/1124 30015KT P6SM BKN070
     FM110700 29010KT P6SM SCT100
     FM111300 29012G19KT P6SM SKC=



000
FTUS41 KAKQ 110257 AAA
TAFRIC
TAF AMD
KRIC 110257Z 1103/1124 30015KT P6SM BKN070
     FM110700 29010KT P6SM SCT100
     FM111300 29012G19KT P6SM SKC=



000
FTUS41 KAKQ 110113 AAA
TAFSBY
TAF AMD
KSBY 110113Z 1101/1124 31010KT P6SM VCSH BKN060
     FM110400 29011KT P6SM BKN050
     FM110900 29011KT P6SM SKC
     FM111400 29014G24KT P6SM SCT250=



000
FTUS41 KAKQ 110113 AAA
TAFSBY
TAF AMD
KSBY 110113Z 1101/1124 31010KT P6SM VCSH BKN060
     FM110400 29011KT P6SM BKN050
     FM110900 29011KT P6SM SKC
     FM111400 29014G24KT P6SM SCT250=



000
FTUS41 KAKQ 102340
TAFECG
TAF
KECG 102340Z 1100/1124 27009KT P6SM BKN080
     FM110500 29009KT P6SM SKC
     FM111300 28013G20KT P6SM SKC=



000
FTUS41 KAKQ 102340
TAFPHF
TAF
KPHF 102340Z 1100/1124 27010KT P6SM BKN080
     FM110500 28011KT P6SM SKC
     FM111300 29015G23KT P6SM SKC=



000
FTUS41 KAKQ 102340
TAFORF
TAF
KORF 102340Z 1100/1124 27010KT P6SM BKN080
     FM110200 28010G17KT P6SM OVC080
     FM110500 29010G17KT P6SM SKC
     FM111300 29014G21KT P6SM SKC=



000
FTUS41 KAKQ 102340
TAFRIC
TAF
KRIC 102340Z 1100/1124 27014G19KT P6SM OVC060
     FM110300 29009KT P6SM SCT100
     FM111300 30012G19KT P6SM SKC=



000
FTUS41 KAKQ 102340
TAFORF
TAF
KORF 102340Z 1100/1124 27010KT P6SM BKN080
     FM110200 28010G17KT P6SM OVC080
     FM110500 29010G17KT P6SM SKC
     FM111300 29014G21KT P6SM SKC=



000
FTUS41 KAKQ 102340
TAFECG
TAF
KECG 102340Z 1100/1124 27009KT P6SM BKN080
     FM110500 29009KT P6SM SKC
     FM111300 28013G20KT P6SM SKC=



000
FTUS41 KAKQ 102340
TAFSBY
TAF
KSBY 102340Z 1100/1124 30008KT P6SM BKN060
     FM110400 29011KT P6SM BKN050
     FM110900 29011KT P6SM SKC
     FM111400 29014G24KT P6SM SCT250=



000
FTUS41 KAKQ 102340
TAFPHF
TAF
KPHF 102340Z 1100/1124 27010KT P6SM BKN080
     FM110500 28011KT P6SM SKC
     FM111300 29015G23KT P6SM SKC=



000
FTUS41 KAKQ 102340
TAFSBY
TAF
KSBY 102340Z 1100/1124 30008KT P6SM BKN060
     FM110400 29011KT P6SM BKN050
     FM110900 29011KT P6SM SKC
     FM111400 29014G24KT P6SM SCT250=



000
FTUS41 KAKQ 102340
TAFRIC
TAF
KRIC 102340Z 1100/1124 27014G19KT P6SM OVC060
     FM110300 29009KT P6SM SCT100
     FM111300 30012G19KT P6SM SKC=



000
FTUS41 KAKQ 102049 AAA
TAFRIC
TAF AMD
KRIC 102049Z 1021/1118 27014G19KT P6SM SCT060 BKN250
     FM110300 29009KT P6SM SCT100
     FM111200 30015KT P6SM SKC=



000
FTUS41 KAKQ 102049 AAA
TAFSBY
TAF AMD
KSBY 102049Z 1021/1118 27012G18KT P6SM FEW045
     FM102200 30010G15KT P6SM SCT050 BKN100
     FM110500 29010KT P6SM FEW050
     FM111300 29014KT P6SM SCT250=



000
FTUS41 KAKQ 101739
TAFSBY
TAF
KSBY 101739Z 1018/1118 30012KT P6SM OVC040
     FM102200 30010G15KT P6SM SCT050 BKN100
     FM110500 29010KT P6SM FEW050
     FM111300 29014KT P6SM SCT250=



000
FTUS41 KAKQ 101739
TAFRIC
TAF
KRIC 101739Z 1018/1118 27007KT P6SM FEW050
     FM102100 28013KT P6SM BKN100
     FM110300 29009KT P6SM SCT100
     FM111200 30015KT P6SM SKC=



000
FTUS41 KAKQ 101739
TAFORF
TAF
KORF 101739Z 1018/1118 28011KT P6SM SCT050
     FM102200 27009KT P6SM BKN080
     FM110500 28013KT P6SM SKC
     FM111300 29015KT P6SM SKC=



000
FTUS41 KAKQ 101739
TAFECG
TAF
KECG 101739Z 1018/1118 25009KT P6SM FEW050
     FM102200 27009KT P6SM BKN100
     FM110600 29009KT P6SM SKC
     FM111300 28015KT P6SM SKC=



000
FTUS41 KAKQ 101739
TAFPHF
TAF
KPHF 101739Z 1018/1118 27010KT P6SM SCT050
     FM102100 27010KT P6SM BKN080
     FM110500 28011KT P6SM SKC
     FM111300 29015KT P6SM SKC=



000
FTUS41 KAKQ 101739
TAFSBY
TAF
KSBY 101739Z 1018/1118 30012KT P6SM OVC040
     FM102200 30010G15KT P6SM SCT050 BKN100
     FM110500 29010KT P6SM FEW050
     FM111300 29014KT P6SM SCT250=



000
FTUS41 KAKQ 101739
TAFRIC
TAF
KRIC 101739Z 1018/1118 27007KT P6SM FEW050
     FM102100 28013KT P6SM BKN100
     FM110300 29009KT P6SM SCT100
     FM111200 30015KT P6SM SKC=



000
FTUS41 KAKQ 101739
TAFORF
TAF
KORF 101739Z 1018/1118 28011KT P6SM SCT050
     FM102200 27009KT P6SM BKN080
     FM110500 28013KT P6SM SKC
     FM111300 29015KT P6SM SKC=



000
FTUS41 KAKQ 101739
TAFECG
TAF
KECG 101739Z 1018/1118 25009KT P6SM FEW050
     FM102200 27009KT P6SM BKN100
     FM110600 29009KT P6SM SKC
     FM111300 28015KT P6SM SKC=



000
FTUS41 KAKQ 101739
TAFPHF
TAF
KPHF 101739Z 1018/1118 27010KT P6SM SCT050
     FM102100 27010KT P6SM BKN080
     FM110500 28011KT P6SM SKC
     FM111300 29015KT P6SM SKC=



    US Dept of Commerce
    National Oceanic and Atmospheric Administration
    National Weather Service
    1325 East West Highway
    Silver Spring, MD 20910
    Page Author: NWS Internet Services Team
Disclaimer
Information Quality
Credits
Glossary
Privacy Policy
Freedom of Information Act (FOIA)
About Us
Career Opportunities